sensor_id;sensor_type;location;lat;lon;timestamp;P1;durP1;ratioP1;P2;durP2;ratioP2
3924;SDS011;1977;52.274;10.518;2024-03-02T00:00:48;20.30;;;15.27;;
3924;SDS011;1977;52.274;10.518;2024-03-02T00:03:16;17.03;;;13.73;;
3924;SDS011;1977;52.274;10.518;2024-03-02T00:05:46;18.70;;;13.70;;
3924;SDS011;1977;52.274;10.518;2024-03-02T00:08:18;17.53;;;13.73;;
3924;SDS011;1977;52.274;10.518;2024-03-02T00:10:50;16.83;;;13.73;;
3924;SDS011;1977;52.274;10.518;2024-03-02T00:13:18;18.63;;;13.43;;
3924;SDS011;1977;52.274;10.518;2024-03-02T00:15:48;18.80;;;13.93;;
3924;SDS011;1977;52.274;10.518;2024-03-02T00:18:25;25.13;;;15.30;;
3924;SDS011;1977;52.274;10.518;2024-03-02T00:20:54;21.20;;;14.37;;
3924;SDS011;1977;52.274;10.518;2024-03-02T00:23:22;21.50;;;14.87;;
3924;SDS011;1977;52.274;10.518;2024-03-02T00:25:50;19.73;;;15.47;;
3924;SDS011;1977;52.274;10.518;2024-03-02T00:28:19;20.40;;;14.83;;
3924;SDS011;1977;52.274;10.518;2024-03-02T00:33:33;21.23;;;14.80;;
3924;SDS011;1977;52.274;10.518;2024-03-02T00:36:02;21.20;;;14.77;;
3924;SDS011;1977;52.274;10.518;2024-03-02T00:38:30;18.93;;;14.93;;
3924;SDS011;1977;52.274;10.518;2024-03-02T00:41:03;21.63;;;15.40;;
3924;SDS011;1977;52.274;10.518;2024-03-02T00:43:41;21.50;;;14.63;;
3924;SDS011;1977;52.274;10.518;2024-03-02T00:46:10;20.17;;;14.63;;
3924;SDS011;1977;52.274;10.518;2024-03-02T00:48:38;21.00;;;15.17;;
3924;SDS011;1977;52.274;10.518;2024-03-02T00:51:07;20.63;;;14.03;;
3924;SDS011;1977;52.274;10.518;2024-03-02T00:53:34;22.97;;;14.77;;
3924;SDS011;1977;52.274;10.518;2024-03-02T00:56:01;20.77;;;15.40;;
3924;SDS011;1977;52.274;10.518;2024-03-02T00:58:28;17.63;;;14.30;;
3924;SDS011;1977;52.274;10.518;2024-03-02T01:00:55;22.60;;;15.47;;
3924;SDS011;1977;52.274;10.518;2024-03-02T01:03:22;20.40;;;15.30;;
3924;SDS011;1977;52.274;10.518;2024-03-02T01:05:49;18.93;;;15.03;;
3924;SDS011;1977;52.274;10.518;2024-03-02T01:08:17;22.40;;;16.30;;
3924;SDS011;1977;52.274;10.518;2024-03-02T01:10:44;22.47;;;15.80;;
3924;SDS011;1977;52.274;10.518;2024-03-02T01:13:11;22.60;;;16.03;;
3924;SDS011;1977;52.274;10.518;2024-03-02T01:15:37;23.77;;;15.43;;
3924;SDS011;1977;52.274;10.518;2024-03-02T01:18:04;22.87;;;15.90;;
3924;SDS011;1977;52.274;10.518;2024-03-02T01:20:31;23.70;;;16.60;;
3924;SDS011;1977;52.274;10.518;2024-03-02T01:22:58;23.27;;;16.33;;
3924;SDS011;1977;52.274;10.518;2024-03-02T01:25:26;21.17;;;15.77;;
3924;SDS011;1977;52.274;10.518;2024-03-02T01:27:53;20.33;;;14.97;;
3924;SDS011;1977;52.274;10.518;2024-03-02T01:30:19;20.43;;;16.47;;
3924;SDS011;1977;52.274;10.518;2024-03-02T01:32:46;23.33;;;16.47;;
3924;SDS011;1977;52.274;10.518;2024-03-02T01:35:13;26.00;;;17.60;;
3924;SDS011;1977;52.274;10.518;2024-03-02T01:37:41;23.30;;;16.40;;
3924;SDS011;1977;52.274;10.518;2024-03-02T01:40:08;24.10;;;16.83;;
3924;SDS011;1977;52.274;10.518;2024-03-02T01:42:37;18.00;;;15.47;;
3924;SDS011;1977;52.274;10.518;2024-03-02T01:45:05;22.93;;;16.67;;
3924;SDS011;1977;52.274;10.518;2024-03-02T01:47:34;26.20;;;15.47;;
3924;SDS011;1977;52.274;10.518;2024-03-02T01:50:01;25.60;;;16.80;;
3924;SDS011;1977;52.274;10.518;2024-03-02T01:52:28;23.77;;;16.80;;
3924;SDS011;1977;52.274;10.518;2024-03-02T01:54:55;25.17;;;16.83;;
3924;SDS011;1977;52.274;10.518;2024-03-02T01:57:22;24.97;;;17.10;;
3924;SDS011;1977;52.274;10.518;2024-03-02T01:59:50;24.73;;;16.83;;
3924;SDS011;1977;52.274;10.518;2024-03-02T02:02:17;21.77;;;16.70;;
3924;SDS011;1977;52.274;10.518;2024-03-02T02:04:45;22.67;;;17.20;;
3924;SDS011;1977;52.274;10.518;2024-03-02T02:07:11;24.37;;;16.67;;
3924;SDS011;1977;52.274;10.518;2024-03-02T02:09:39;21.00;;;16.47;;
3924;SDS011;1977;52.274;10.518;2024-03-02T02:12:07;29.20;;;16.87;;
3924;SDS011;1977;52.274;10.518;2024-03-02T02:14:34;24.23;;;16.50;;
3924;SDS011;1977;52.274;10.518;2024-03-02T02:17:02;22.73;;;17.00;;
3924;SDS011;1977;52.274;10.518;2024-03-02T02:19:29;24.07;;;16.33;;
3924;SDS011;1977;52.274;10.518;2024-03-02T02:21:57;23.87;;;16.97;;
3924;SDS011;1977;52.274;10.518;2024-03-02T02:24:24;25.17;;;18.27;;
3924;SDS011;1977;52.274;10.518;2024-03-02T02:26:50;25.67;;;17.27;;
3924;SDS011;1977;52.274;10.518;2024-03-02T02:29:17;21.80;;;17.13;;
3924;SDS011;1977;52.274;10.518;2024-03-02T02:31:44;25.43;;;16.50;;
3924;SDS011;1977;52.274;10.518;2024-03-02T02:34:11;23.40;;;17.20;;
3924;SDS011;1977;52.274;10.518;2024-03-02T02:36:38;24.03;;;17.73;;
3924;SDS011;1977;52.274;10.518;2024-03-02T02:39:07;23.90;;;17.27;;
3924;SDS011;1977;52.274;10.518;2024-03-02T02:41:37;24.47;;;16.67;;
3924;SDS011;1977;52.274;10.518;2024-03-02T02:44:04;25.20;;;17.53;;
3924;SDS011;1977;52.274;10.518;2024-03-02T02:46:30;20.33;;;16.20;;
3924;SDS011;1977;52.274;10.518;2024-03-02T02:48:57;23.03;;;17.03;;
3924;SDS011;1977;52.274;10.518;2024-03-02T02:51:24;24.13;;;16.63;;
3924;SDS011;1977;52.274;10.518;2024-03-02T02:53:51;27.23;;;18.17;;
3924;SDS011;1977;52.274;10.518;2024-03-02T02:56:19;19.63;;;15.20;;
3924;SDS011;1977;52.274;10.518;2024-03-02T02:58:46;24.23;;;17.83;;
3924;SDS011;1977;52.274;10.518;2024-03-02T03:01:13;20.60;;;15.47;;
3924;SDS011;1977;52.274;10.518;2024-03-02T03:03:42;24.30;;;17.20;;
3924;SDS011;1977;52.274;10.518;2024-03-02T03:06:08;23.00;;;16.90;;
3924;SDS011;1977;52.274;10.518;2024-03-02T03:08:35;21.20;;;16.00;;
3924;SDS011;1977;52.274;10.518;2024-03-02T03:11:02;26.37;;;17.97;;
3924;SDS011;1977;52.274;10.518;2024-03-02T03:13:31;23.27;;;16.07;;
3924;SDS011;1977;52.274;10.518;2024-03-02T03:15:58;23.33;;;15.83;;
3924;SDS011;1977;52.274;10.518;2024-03-02T03:18:24;23.40;;;16.80;;
3924;SDS011;1977;52.274;10.518;2024-03-02T03:20:51;26.80;;;17.07;;
3924;SDS011;1977;52.274;10.518;2024-03-02T03:23:18;25.07;;;16.50;;
3924;SDS011;1977;52.274;10.518;2024-03-02T03:25:45;22.57;;;16.60;;
3924;SDS011;1977;52.274;10.518;2024-03-02T03:28:12;25.77;;;17.63;;
3924;SDS011;1977;52.274;10.518;2024-03-02T03:30:40;24.57;;;16.73;;
3924;SDS011;1977;52.274;10.518;2024-03-02T03:33:08;22.80;;;17.47;;
3924;SDS011;1977;52.274;10.518;2024-03-02T03:35:35;22.40;;;16.90;;
3924;SDS011;1977;52.274;10.518;2024-03-02T03:38:03;24.73;;;18.23;;
3924;SDS011;1977;52.274;10.518;2024-03-02T03:40:30;26.10;;;17.90;;
3924;SDS011;1977;52.274;10.518;2024-03-02T03:42:57;25.47;;;18.10;;
3924;SDS011;1977;52.274;10.518;2024-03-02T03:45:24;24.53;;;17.67;;
3924;SDS011;1977;52.274;10.518;2024-03-02T03:47:53;26.63;;;17.70;;
3924;SDS011;1977;52.274;10.518;2024-03-02T03:50:20;21.40;;;16.10;;
3924;SDS011;1977;52.274;10.518;2024-03-02T03:52:46;22.67;;;17.90;;
3924;SDS011;1977;52.274;10.518;2024-03-02T03:55:13;23.60;;;17.33;;
3924;SDS011;1977;52.274;10.518;2024-03-02T03:57:40;22.93;;;17.80;;
3924;SDS011;1977;52.274;10.518;2024-03-02T04:00:07;23.07;;;17.60;;
3924;SDS011;1977;52.274;10.518;2024-03-02T04:02:36;22.87;;;17.33;;
3924;SDS011;1977;52.274;10.518;2024-03-02T04:05:05;25.10;;;17.70;;
3924;SDS011;1977;52.274;10.518;2024-03-02T04:07:34;24.77;;;17.47;;
3924;SDS011;1977;52.274;10.518;2024-03-02T04:10:05;24.03;;;16.87;;
3924;SDS011;1977;52.274;10.518;2024-03-02T04:12:33;28.47;;;18.10;;
3924;SDS011;1977;52.274;10.518;2024-03-02T04:15:01;24.33;;;17.50;;
3924;SDS011;1977;52.274;10.518;2024-03-02T04:17:29;24.10;;;17.80;;
3924;SDS011;1977;52.274;10.518;2024-03-02T04:19:57;24.50;;;17.07;;
3924;SDS011;1977;52.274;10.518;2024-03-02T04:22:26;23.50;;;16.57;;
3924;SDS011;1977;52.274;10.518;2024-03-02T04:24:53;23.93;;;18.07;;
3924;SDS011;1977;52.274;10.518;2024-03-02T04:27:19;26.10;;;17.90;;
3924;SDS011;1977;52.274;10.518;2024-03-02T04:29:46;22.17;;;15.83;;
3924;SDS011;1977;52.274;10.518;2024-03-02T04:32:13;24.67;;;18.17;;
3924;SDS011;1977;52.274;10.518;2024-03-02T04:34:40;23.77;;;16.80;;
3924;SDS011;1977;52.274;10.518;2024-03-02T04:37:06;25.97;;;18.47;;
3924;SDS011;1977;52.274;10.518;2024-03-02T04:39:35;24.83;;;17.13;;
3924;SDS011;1977;52.274;10.518;2024-03-02T04:42:02;19.10;;;15.90;;
3924;SDS011;1977;52.274;10.518;2024-03-02T04:44:29;25.37;;;18.00;;
3924;SDS011;1977;52.274;10.518;2024-03-02T04:46:56;24.23;;;16.57;;
3924;SDS011;1977;52.274;10.518;2024-03-02T04:49:23;20.70;;;16.13;;
3924;SDS011;1977;52.274;10.518;2024-03-02T04:51:49;22.00;;;16.53;;
3924;SDS011;1977;52.274;10.518;2024-03-02T04:54:16;27.63;;;17.27;;
3924;SDS011;1977;52.274;10.518;2024-03-02T04:56:45;23.27;;;17.80;;
3924;SDS011;1977;52.274;10.518;2024-03-02T04:59:14;25.90;;;17.50;;
3924;SDS011;1977;52.274;10.518;2024-03-02T05:01:42;23.13;;;18.03;;
3924;SDS011;1977;52.274;10.518;2024-03-02T05:04:09;21.43;;;16.90;;
3924;SDS011;1977;52.274;10.518;2024-03-02T05:06:36;21.37;;;16.60;;
3924;SDS011;1977;52.274;10.518;2024-03-02T05:09:05;22.23;;;16.73;;
3924;SDS011;1977;52.274;10.518;2024-03-02T05:11:31;20.93;;;16.00;;
3924;SDS011;1977;52.274;10.518;2024-03-02T05:14:20;25.50;;;17.67;;
3924;SDS011;1977;52.274;10.518;2024-03-02T05:16:46;26.53;;;17.40;;
3924;SDS011;1977;52.274;10.518;2024-03-02T05:19:13;24.60;;;16.30;;
3924;SDS011;1977;52.274;10.518;2024-03-02T05:21:40;25.07;;;16.83;;
3924;SDS011;1977;52.274;10.518;2024-03-02T05:24:07;25.20;;;16.97;;
3924;SDS011;1977;52.274;10.518;2024-03-02T05:26:33;25.10;;;16.80;;
3924;SDS011;1977;52.274;10.518;2024-03-02T05:29:00;21.00;;;15.47;;
3924;SDS011;1977;52.274;10.518;2024-03-02T05:31:29;21.43;;;16.30;;
3924;SDS011;1977;52.274;10.518;2024-03-02T05:33:56;27.60;;;18.10;;
3924;SDS011;1977;52.274;10.518;2024-03-02T05:36:23;25.87;;;17.57;;
3924;SDS011;1977;52.274;10.518;2024-03-02T05:38:49;19.70;;;15.47;;
3924;SDS011;1977;52.274;10.518;2024-03-02T05:41:16;22.87;;;16.63;;
3924;SDS011;1977;52.274;10.518;2024-03-02T05:43:43;23.50;;;16.83;;
3924;SDS011;1977;52.274;10.518;2024-03-02T05:46:10;22.63;;;16.30;;
3924;SDS011;1977;52.274;10.518;2024-03-02T05:48:38;25.77;;;17.20;;
3924;SDS011;1977;52.274;10.518;2024-03-02T05:51:05;28.47;;;17.67;;
3924;SDS011;1977;52.274;10.518;2024-03-02T05:53:31;24.90;;;17.30;;
3924;SDS011;1977;52.274;10.518;2024-03-02T05:55:58;23.97;;;17.10;;
3924;SDS011;1977;52.274;10.518;2024-03-02T05:58:25;25.37;;;17.73;;
3924;SDS011;1977;52.274;10.518;2024-03-02T06:01:03;27.83;;;17.50;;
3924;SDS011;1977;52.274;10.518;2024-03-02T06:03:30;23.83;;;18.10;;
3924;SDS011;1977;52.274;10.518;2024-03-02T06:05:58;25.27;;;18.50;;
3924;SDS011;1977;52.274;10.518;2024-03-02T06:08:25;24.83;;;17.53;;
3924;SDS011;1977;52.274;10.518;2024-03-02T06:10:52;26.13;;;18.70;;
3924;SDS011;1977;52.274;10.518;2024-03-02T06:13:19;25.90;;;17.20;;
3924;SDS011;1977;52.274;10.518;2024-03-02T06:15:45;27.83;;;18.20;;
3924;SDS011;1977;52.274;10.518;2024-03-02T06:18:12;28.73;;;18.23;;
3924;SDS011;1977;52.274;10.518;2024-03-02T06:20:39;24.00;;;17.70;;
3924;SDS011;1977;52.274;10.518;2024-03-02T06:23:07;23.20;;;17.37;;
3924;SDS011;1977;52.274;10.518;2024-03-02T06:25:34;23.43;;;17.03;;
3924;SDS011;1977;52.274;10.518;2024-03-02T06:28:01;27.00;;;17.97;;
3924;SDS011;1977;52.274;10.518;2024-03-02T06:30:29;25.00;;;18.37;;
3924;SDS011;1977;52.274;10.518;2024-03-02T06:32:56;27.70;;;19.13;;
3924;SDS011;1977;52.274;10.518;2024-03-02T06:35:22;25.07;;;18.03;;
3924;SDS011;1977;52.274;10.518;2024-03-02T06:37:49;26.20;;;19.20;;
3924;SDS011;1977;52.274;10.518;2024-03-02T06:40:17;24.03;;;17.63;;
3924;SDS011;1977;52.274;10.518;2024-03-02T06:42:44;24.73;;;18.40;;
3924;SDS011;1977;52.274;10.518;2024-03-02T06:45:11;28.50;;;18.77;;
3924;SDS011;1977;52.274;10.518;2024-03-02T06:47:37;26.77;;;18.40;;
3924;SDS011;1977;52.274;10.518;2024-03-02T06:50:04;23.57;;;17.70;;
3924;SDS011;1977;52.274;10.518;2024-03-02T06:52:32;30.00;;;20.87;;
3924;SDS011;1977;52.274;10.518;2024-03-02T06:54:58;25.67;;;18.37;;
3924;SDS011;1977;52.274;10.518;2024-03-02T06:57:26;26.05;;;17.65;;
3924;SDS011;1977;52.274;10.518;2024-03-02T06:59:53;26.70;;;17.77;;
3924;SDS011;1977;52.274;10.518;2024-03-02T07:02:23;27.80;;;20.37;;
3924;SDS011;1977;52.274;10.518;2024-03-02T07:04:51;24.00;;;18.03;;
3924;SDS011;1977;52.274;10.518;2024-03-02T07:07:18;28.33;;;18.73;;
3924;SDS011;1977;52.274;10.518;2024-03-02T07:09:45;23.77;;;18.10;;
3924;SDS011;1977;52.274;10.518;2024-03-02T07:12:12;25.70;;;18.27;;
3924;SDS011;1977;52.274;10.518;2024-03-02T07:14:40;23.50;;;18.30;;
3924;SDS011;1977;52.274;10.518;2024-03-02T07:17:25;28.17;;;17.70;;
3924;SDS011;1977;52.274;10.518;2024-03-02T07:19:52;22.00;;;17.67;;
3924;SDS011;1977;52.274;10.518;2024-03-02T07:22:18;25.27;;;18.63;;
3924;SDS011;1977;52.274;10.518;2024-03-02T07:24:45;29.17;;;20.53;;
3924;SDS011;1977;52.274;10.518;2024-03-02T07:27:12;24.60;;;18.40;;
3924;SDS011;1977;52.274;10.518;2024-03-02T07:29:41;23.57;;;18.40;;
3924;SDS011;1977;52.274;10.518;2024-03-02T07:32:08;25.53;;;19.77;;
3924;SDS011;1977;52.274;10.518;2024-03-02T07:34:36;25.07;;;18.27;;
3924;SDS011;1977;52.274;10.518;2024-03-02T07:37:03;30.10;;;19.60;;
3924;SDS011;1977;52.274;10.518;2024-03-02T07:39:30;30.57;;;19.00;;
3924;SDS011;1977;52.274;10.518;2024-03-02T07:41:57;26.10;;;19.80;;
3924;SDS011;1977;52.274;10.518;2024-03-02T07:44:25;26.17;;;18.33;;
3924;SDS011;1977;52.274;10.518;2024-03-02T07:46:53;26.30;;;18.13;;
3924;SDS011;1977;52.274;10.518;2024-03-02T07:49:20;28.97;;;19.30;;
3924;SDS011;1977;52.274;10.518;2024-03-02T07:51:47;30.00;;;20.23;;
3924;SDS011;1977;52.274;10.518;2024-03-02T07:54:14;26.80;;;18.73;;
3924;SDS011;1977;52.274;10.518;2024-03-02T07:56:41;27.80;;;19.03;;
3924;SDS011;1977;52.274;10.518;2024-03-02T07:59:08;27.43;;;18.07;;
3924;SDS011;1977;52.274;10.518;2024-03-02T08:01:35;27.80;;;19.40;;
3924;SDS011;1977;52.274;10.518;2024-03-02T08:04:03;26.77;;;17.53;;
3924;SDS011;1977;52.274;10.518;2024-03-02T08:06:30;26.90;;;18.57;;
3924;SDS011;1977;52.274;10.518;2024-03-02T08:08:57;27.03;;;17.80;;
3924;SDS011;1977;52.274;10.518;2024-03-02T08:11:26;25.23;;;18.93;;
3924;SDS011;1977;52.274;10.518;2024-03-02T08:13:54;24.23;;;17.40;;
3924;SDS011;1977;52.274;10.518;2024-03-02T08:16:20;25.20;;;18.50;;
3924;SDS011;1977;52.274;10.518;2024-03-02T08:18:48;27.60;;;17.97;;
3924;SDS011;1977;52.274;10.518;2024-03-02T08:21:17;26.03;;;17.80;;
3924;SDS011;1977;52.274;10.518;2024-03-02T08:23:44;27.83;;;17.87;;
3924;SDS011;1977;52.274;10.518;2024-03-02T08:26:11;22.90;;;17.30;;
3924;SDS011;1977;52.274;10.518;2024-03-02T08:28:38;24.87;;;18.70;;
3924;SDS011;1977;52.274;10.518;2024-03-02T08:31:05;24.60;;;17.10;;
3924;SDS011;1977;52.274;10.518;2024-03-02T08:33:32;22.67;;;16.83;;
3924;SDS011;1977;52.274;10.518;2024-03-02T08:36:00;27.30;;;17.67;;
3924;SDS011;1977;52.274;10.518;2024-03-02T08:38:29;27.67;;;18.60;;
3924;SDS011;1977;52.274;10.518;2024-03-02T08:40:55;27.00;;;18.50;;
3924;SDS011;1977;52.274;10.518;2024-03-02T08:43:22;24.50;;;17.03;;
3924;SDS011;1977;52.274;10.518;2024-03-02T08:45:50;26.90;;;18.80;;
3924;SDS011;1977;52.274;10.518;2024-03-02T08:48:16;26.77;;;18.73;;
3924;SDS011;1977;52.274;10.518;2024-03-02T08:50:43;25.40;;;17.63;;
3924;SDS011;1977;52.274;10.518;2024-03-02T08:53:10;22.57;;;17.63;;
3924;SDS011;1977;52.274;10.518;2024-03-02T08:55:38;20.50;;;16.43;;
3924;SDS011;1977;52.274;10.518;2024-03-02T08:58:05;26.00;;;18.90;;
3924;SDS011;1977;52.274;10.518;2024-03-02T09:00:32;23.00;;;17.37;;
3924;SDS011;1977;52.274;10.518;2024-03-02T09:02:59;21.30;;;16.67;;
3924;SDS011;1977;52.274;10.518;2024-03-02T09:05:25;21.43;;;16.17;;
3924;SDS011;1977;52.274;10.518;2024-03-02T09:07:52;22.10;;;16.90;;
3924;SDS011;1977;52.274;10.518;2024-03-02T09:10:19;22.03;;;16.37;;
3924;SDS011;1977;52.274;10.518;2024-03-02T09:12:47;23.67;;;18.00;;
3924;SDS011;1977;52.274;10.518;2024-03-02T09:15:14;26.80;;;17.00;;
3924;SDS011;1977;52.274;10.518;2024-03-02T09:17:41;21.73;;;16.90;;
3924;SDS011;1977;52.274;10.518;2024-03-02T09:20:08;22.33;;;16.93;;
3924;SDS011;1977;52.274;10.518;2024-03-02T09:22:36;30.60;;;18.30;;
3924;SDS011;1977;52.274;10.518;2024-03-02T09:25:03;20.00;;;15.30;;
3924;SDS011;1977;52.274;10.518;2024-03-02T09:27:32;20.07;;;16.33;;
3924;SDS011;1977;52.274;10.518;2024-03-02T09:30:00;22.53;;;16.20;;
3924;SDS011;1977;52.274;10.518;2024-03-02T09:32:27;21.00;;;16.23;;
3924;SDS011;1977;52.274;10.518;2024-03-02T09:34:53;21.03;;;16.33;;
3924;SDS011;1977;52.274;10.518;2024-03-02T09:37:21;20.83;;;16.60;;
3924;SDS011;1977;52.274;10.518;2024-03-02T09:39:47;18.73;;;14.87;;
3924;SDS011;1977;52.274;10.518;2024-03-02T09:42:14;20.70;;;16.00;;
3924;SDS011;1977;52.274;10.518;2024-03-02T09:44:42;20.80;;;16.30;;
3924;SDS011;1977;52.274;10.518;2024-03-02T09:47:10;21.17;;;16.00;;
3924;SDS011;1977;52.274;10.518;2024-03-02T09:49:37;22.60;;;16.63;;
3924;SDS011;1977;52.274;10.518;2024-03-02T09:52:04;24.67;;;16.80;;
3924;SDS011;1977;52.274;10.518;2024-03-02T09:54:31;20.50;;;14.60;;
3924;SDS011;1977;52.274;10.518;2024-03-02T09:56:58;22.93;;;15.73;;
3924;SDS011;1977;52.274;10.518;2024-03-02T09:59:26;21.60;;;15.17;;
3924;SDS011;1977;52.274;10.518;2024-03-02T10:01:56;19.90;;;15.47;;
3924;SDS011;1977;52.274;10.518;2024-03-02T10:04:26;21.97;;;16.10;;
3924;SDS011;1977;52.274;10.518;2024-03-02T10:09:38;21.23;;;17.10;;
3924;SDS011;1977;52.274;10.518;2024-03-02T10:12:05;21.80;;;16.23;;
3924;SDS011;1977;52.274;10.518;2024-03-02T10:14:33;22.33;;;16.10;;
3924;SDS011;1977;52.274;10.518;2024-03-02T10:17:04;20.37;;;15.77;;
3924;SDS011;1977;52.274;10.518;2024-03-02T10:19:33;22.90;;;16.60;;
3924;SDS011;1977;52.274;10.518;2024-03-02T10:22:02;17.57;;;14.90;;
3924;SDS011;1977;52.274;10.518;2024-03-02T10:24:34;18.83;;;16.10;;
3924;SDS011;1977;52.274;10.518;2024-03-02T10:27:06;26.63;;;17.67;;
3924;SDS011;1977;52.274;10.518;2024-03-02T10:29:36;19.83;;;14.83;;
3924;SDS011;1977;52.274;10.518;2024-03-02T10:32:04;19.97;;;14.53;;
3924;SDS011;1977;52.274;10.518;2024-03-02T10:34:33;18.87;;;14.80;;
3924;SDS011;1977;52.274;10.518;2024-03-02T10:37:00;19.20;;;15.13;;
3924;SDS011;1977;52.274;10.518;2024-03-02T10:39:27;20.77;;;15.97;;
3924;SDS011;1977;52.274;10.518;2024-03-02T10:41:54;17.30;;;14.47;;
3924;SDS011;1977;52.274;10.518;2024-03-02T10:44:22;17.60;;;14.00;;
3924;SDS011;1977;52.274;10.518;2024-03-02T10:46:50;19.40;;;15.23;;
3924;SDS011;1977;52.274;10.518;2024-03-02T10:49:18;18.87;;;15.50;;
3924;SDS011;1977;52.274;10.518;2024-03-02T10:51:48;21.23;;;15.70;;
3924;SDS011;1977;52.274;10.518;2024-03-02T10:54:15;18.53;;;14.23;;
3924;SDS011;1977;52.274;10.518;2024-03-02T10:56:44;21.07;;;16.07;;
3924;SDS011;1977;52.274;10.518;2024-03-02T10:59:15;18.83;;;14.93;;
3924;SDS011;1977;52.274;10.518;2024-03-02T11:01:48;17.87;;;13.13;;
3924;SDS011;1977;52.274;10.518;2024-03-02T11:06:47;15.63;;;12.60;;
3924;SDS011;1977;52.274;10.518;2024-03-02T11:09:17;16.90;;;13.00;;
3924;SDS011;1977;52.274;10.518;2024-03-02T11:11:46;14.60;;;13.00;;
3924;SDS011;1977;52.274;10.518;2024-03-02T11:14:21;16.57;;;12.70;;
3924;SDS011;1977;52.274;10.518;2024-03-02T11:16:50;17.43;;;13.77;;
3924;SDS011;1977;52.274;10.518;2024-03-02T11:19:19;17.90;;;14.60;;
3924;SDS011;1977;52.274;10.518;2024-03-02T11:21:46;21.30;;;15.63;;
3924;SDS011;1977;52.274;10.518;2024-03-02T11:24:30;20.73;;;16.37;;
3924;SDS011;1977;52.274;10.518;2024-03-02T11:26:59;20.10;;;14.70;;
3924;SDS011;1977;52.274;10.518;2024-03-02T11:29:42;16.57;;;13.93;;
3924;SDS011;1977;52.274;10.518;2024-03-02T11:32:14;18.27;;;13.10;;
3924;SDS011;1977;52.274;10.518;2024-03-02T11:34:42;15.67;;;12.53;;
3924;SDS011;1977;52.274;10.518;2024-03-02T11:37:11;16.07;;;14.00;;
3924;SDS011;1977;52.274;10.518;2024-03-02T11:39:40;17.77;;;14.27;;
3924;SDS011;1977;52.274;10.518;2024-03-02T11:42:07;18.10;;;13.40;;
3924;SDS011;1977;52.274;10.518;2024-03-02T11:44:35;16.93;;;13.07;;
3924;SDS011;1977;52.274;10.518;2024-03-02T11:47:02;15.27;;;13.27;;
3924;SDS011;1977;52.274;10.518;2024-03-02T11:49:38;18.67;;;12.67;;
3924;SDS011;1977;52.274;10.518;2024-03-02T11:52:06;16.13;;;12.93;;
3924;SDS011;1977;52.274;10.518;2024-03-02T11:54:34;19.67;;;13.13;;
3924;SDS011;1977;52.274;10.518;2024-03-02T11:57:06;17.20;;;13.37;;
3924;SDS011;1977;52.274;10.518;2024-03-02T11:59:36;16.30;;;12.57;;
3924;SDS011;1977;52.274;10.518;2024-03-02T12:02:03;16.77;;;12.70;;
3924;SDS011;1977;52.274;10.518;2024-03-02T12:04:30;21.47;;;15.27;;
3924;SDS011;1977;52.274;10.518;2024-03-02T12:06:58;17.97;;;13.10;;
3924;SDS011;1977;52.274;10.518;2024-03-02T12:09:25;14.90;;;11.90;;
3924;SDS011;1977;52.274;10.518;2024-03-02T12:12:00;15.03;;;12.10;;
3924;SDS011;1977;52.274;10.518;2024-03-02T12:14:30;15.87;;;12.77;;
3924;SDS011;1977;52.274;10.518;2024-03-02T12:16:57;15.43;;;12.17;;
3924;SDS011;1977;52.274;10.518;2024-03-02T12:19:25;17.73;;;12.60;;
3924;SDS011;1977;52.274;10.518;2024-03-02T12:21:52;17.17;;;11.60;;
3924;SDS011;1977;52.274;10.518;2024-03-02T12:24:19;15.70;;;11.20;;
3924;SDS011;1977;52.274;10.518;2024-03-02T12:26:47;14.70;;;11.17;;
3924;SDS011;1977;52.274;10.518;2024-03-02T12:29:15;13.17;;;11.40;;
3924;SDS011;1977;52.274;10.518;2024-03-02T12:31:43;14.37;;;10.80;;
3924;SDS011;1977;52.274;10.518;2024-03-02T12:34:11;15.07;;;11.33;;
3924;SDS011;1977;52.274;10.518;2024-03-02T12:36:39;15.03;;;11.23;;
3924;SDS011;1977;52.274;10.518;2024-03-02T12:39:06;13.73;;;10.60;;
3924;SDS011;1977;52.274;10.518;2024-03-02T12:41:35;12.97;;;11.23;;
3924;SDS011;1977;52.274;10.518;2024-03-02T12:44:03;11.07;;;9.77;;
3924;SDS011;1977;52.274;10.518;2024-03-02T12:46:30;11.73;;;10.50;;
3924;SDS011;1977;52.274;10.518;2024-03-02T12:48:58;13.40;;;10.20;;
3924;SDS011;1977;52.274;10.518;2024-03-02T12:51:31;10.83;;;9.00;;
3924;SDS011;1977;52.274;10.518;2024-03-02T12:53:58;15.37;;;10.30;;
3924;SDS011;1977;52.274;10.518;2024-03-02T12:56:25;11.70;;;9.13;;
3924;SDS011;1977;52.274;10.518;2024-03-02T12:58:53;10.30;;;8.63;;
3924;SDS011;1977;52.274;10.518;2024-03-02T13:01:20;13.17;;;8.77;;
3924;SDS011;1977;52.274;10.518;2024-03-02T13:03:48;20.10;;;13.30;;
3924;SDS011;1977;52.274;10.518;2024-03-02T13:06:17;18.33;;;10.93;;
3924;SDS011;1977;52.274;10.518;2024-03-02T13:08:45;13.57;;;10.33;;
3924;SDS011;1977;52.274;10.518;2024-03-02T13:11:12;10.63;;;8.93;;
3924;SDS011;1977;52.274;10.518;2024-03-02T13:13:39;9.50;;;7.73;;
3924;SDS011;1977;52.274;10.518;2024-03-02T13:16:07;10.43;;;9.10;;
3924;SDS011;1977;52.274;10.518;2024-03-02T13:18:35;12.77;;;9.00;;
3924;SDS011;1977;52.274;10.518;2024-03-02T13:21:02;8.90;;;8.00;;
3924;SDS011;1977;52.274;10.518;2024-03-02T13:23:30;11.17;;;8.20;;
3924;SDS011;1977;52.274;10.518;2024-03-02T13:25:57;10.10;;;8.13;;
3924;SDS011;1977;52.274;10.518;2024-03-02T13:28:24;9.60;;;7.80;;
3924;SDS011;1977;52.274;10.518;2024-03-02T13:30:51;10.43;;;8.90;;
3924;SDS011;1977;52.274;10.518;2024-03-02T13:33:18;9.43;;;7.87;;
3924;SDS011;1977;52.274;10.518;2024-03-02T13:35:47;10.53;;;7.70;;
3924;SDS011;1977;52.274;10.518;2024-03-02T13:38:15;8.80;;;7.20;;
3924;SDS011;1977;52.274;10.518;2024-03-02T13:40:44;7.93;;;6.93;;
3924;SDS011;1977;52.274;10.518;2024-03-02T13:43:11;8.17;;;7.37;;
3924;SDS011;1977;52.274;10.518;2024-03-02T13:45:38;9.30;;;8.30;;
3924;SDS011;1977;52.274;10.518;2024-03-02T13:48:05;11.17;;;8.00;;
3924;SDS011;1977;52.274;10.518;2024-03-02T13:50:32;7.90;;;7.10;;
3924;SDS011;1977;52.274;10.518;2024-03-02T13:52:59;7.60;;;6.53;;
3924;SDS011;1977;52.274;10.518;2024-03-02T13:55:26;7.13;;;6.10;;
3924;SDS011;1977;52.274;10.518;2024-03-02T13:57:54;8.47;;;6.37;;
3924;SDS011;1977;52.274;10.518;2024-03-02T14:00:21;6.90;;;6.30;;
3924;SDS011;1977;52.274;10.518;2024-03-02T14:02:48;6.60;;;5.87;;
3924;SDS011;1977;52.274;10.518;2024-03-02T14:05:16;7.57;;;6.40;;
3924;SDS011;1977;52.274;10.518;2024-03-02T14:07:42;7.00;;;6.17;;
3924;SDS011;1977;52.274;10.518;2024-03-02T14:10:10;10.73;;;7.90;;
3924;SDS011;1977;52.274;10.518;2024-03-02T14:12:36;7.80;;;6.60;;
3924;SDS011;1977;52.274;10.518;2024-03-02T14:15:06;6.90;;;6.20;;
3924;SDS011;1977;52.274;10.518;2024-03-02T14:17:33;8.37;;;7.00;;
3924;SDS011;1977;52.274;10.518;2024-03-02T14:20:00;8.40;;;6.80;;
3924;SDS011;1977;52.274;10.518;2024-03-02T14:22:27;7.00;;;6.30;;
3924;SDS011;1977;52.274;10.518;2024-03-02T14:24:53;9.13;;;7.47;;
3924;SDS011;1977;52.274;10.518;2024-03-02T14:27:20;8.27;;;7.40;;
3924;SDS011;1977;52.274;10.518;2024-03-02T14:29:47;7.43;;;6.30;;
3924;SDS011;1977;52.274;10.518;2024-03-02T14:32:15;7.70;;;6.80;;
3924;SDS011;1977;52.274;10.518;2024-03-02T14:34:42;7.33;;;6.57;;
3924;SDS011;1977;52.274;10.518;2024-03-02T14:37:11;7.07;;;6.20;;
3924;SDS011;1977;52.274;10.518;2024-03-02T14:39:38;8.50;;;6.30;;
3924;SDS011;1977;52.274;10.518;2024-03-02T14:42:05;6.90;;;5.50;;
3924;SDS011;1977;52.274;10.518;2024-03-02T14:44:32;7.90;;;6.63;;
3924;SDS011;1977;52.274;10.518;2024-03-02T14:47:00;6.90;;;6.20;;
3924;SDS011;1977;52.274;10.518;2024-03-02T14:49:30;8.10;;;7.10;;